createdAt,value
2019-02-11T00:50:33.258Z,12.67
2019-02-11T00:53:52.242Z,9.00
2019-02-11T01:00:37.493Z,9.83
2019-02-11T01:03:28.383Z,7.00
2019-02-11T01:06:26.311Z,4.63
2019-02-11T01:16:43.707Z,11.43
2019-02-11T01:20:08.701Z,8.30
2019-02-11T01:26:40.812Z,10.47
2019-02-11T01:33:56.726Z,10.13
2019-02-11T01:37:27.093Z,7.63
2019-02-11T01:40:22.237Z,8.23
2019-02-11T01:43:47.250Z,9.40
2019-02-11T01:46:40.640Z,11.77
2019-02-11T01:49:51.814Z,6.87
2019-02-11T01:55:51.338Z,9.23
2019-02-11T01:58:57.423Z,8.53
2019-02-11T02:02:08.010Z,6.13
2019-02-11T02:04:48.351Z,10.80
2019-02-11T02:11:28.995Z,6.40
2019-02-11T02:14:10.110Z,9.17
2019-02-11T02:17:17.680Z,6.73
2019-02-11T02:20:22.641Z,11.37
2019-02-11T02:23:10.996Z,9.97
2019-02-11T02:25:57.639Z,5.03
2019-02-11T02:32:09.817Z,12.47
2019-02-11T02:34:40.447Z,7.73
2019-02-11T02:37:59.083Z,9.90
2019-02-11T02:40:38.188Z,11.00
2019-02-11T02:43:19.054Z,10.40
2019-02-11T02:45:56.939Z,8.50
2019-02-11T02:49:07.222Z,9.23
2019-02-11T02:51:41.495Z,6.87
2019-02-11T02:54:37.911Z,12.53
2019-02-11T02:57:12.627Z,9.37
2019-02-11T03:00:02.760Z,8.40
2019-02-11T03:02:45.126Z,7.07
2019-02-11T03:05:24.881Z,13.97
2019-02-11T03:08:18.311Z,10.00
2019-02-11T03:11:00.073Z,8.50
2019-02-11T03:13:28.683Z,8.90
2019-02-11T03:16:01.615Z,6.17
2019-02-11T03:19:19.772Z,7.97
2019-02-11T03:21:51.560Z,10.00
2019-02-11T03:24:26.566Z,12.43
2019-02-11T03:27:10.126Z,9.30
2019-02-11T03:29:44.158Z,8.50
2019-02-11T03:32:23.945Z,11.57
2019-02-11T03:34:55.962Z,9.43
2019-02-11T03:37:50.961Z,6.27
2019-02-11T03:40:20.758Z,12.10
2019-02-11T03:42:53.853Z,10.70
2019-02-11T03:45:25.022Z,9.00
2019-02-11T03:48:12.098Z,7.60
2019-02-11T03:50:40.315Z,13.07
2019-02-11T03:53:08.260Z,9.00
2019-02-11T03:55:38.010Z,11.33
2019-02-11T03:59:04.132Z,9.30
2019-02-11T04:01:33.168Z,12.13
2019-02-11T04:04:01.833Z,12.70
2019-02-11T04:06:53.302Z,7.23
2019-02-11T04:09:23.697Z,9.60
2019-02-11T04:11:51.838Z,7.53
2019-02-11T04:14:25.708Z,8.23
2019-02-11T04:17:02.374Z,7.83
2019-02-11T04:19:33.240Z,8.90
2019-02-11T04:22:12.401Z,9.83
2019-02-11T04:24:38.023Z,6.83
2019-02-11T04:27:36.695Z,12.97
2019-02-11T04:30:13.575Z,9.80
2019-02-11T04:32:45.146Z,11.53
2019-02-11T04:35:28.913Z,7.13
2019-02-11T04:38:38.068Z,13.07
2019-02-11T04:41:07.379Z,7.33
2019-02-11T04:43:35.062Z,6.87
2019-02-11T04:46:03.080Z,11.93
2019-02-11T04:48:43.115Z,8.23
2019-02-11T04:51:13.684Z,7.70
2019-02-11T04:53:42.689Z,8.73
2019-02-11T04:56:13.418Z,9.00
2019-02-11T04:58:41.494Z,9.37
2019-02-11T05:01:10.917Z,7.27
2019-02-11T05:03:42.618Z,9.23
2019-02-11T05:06:13.992Z,8.27
2019-02-11T05:09:18.272Z,7.00
2019-02-11T05:11:46.165Z,11.10
2019-02-11T05:14:16.039Z,8.57
2019-02-11T05:16:50.180Z,10.60
2019-02-11T05:19:17.835Z,10.60
2019-02-11T05:21:45.753Z,8.57
2019-02-11T05:24:18.698Z,7.93
2019-02-11T05:27:09.218Z,10.90
2019-02-11T05:29:39.531Z,8.70
2019-02-11T05:32:10.148Z,8.27
2019-02-11T05:34:41.308Z,11.67
2019-02-11T05:37:09.791Z,9.77
2019-02-11T05:39:38.037Z,13.63
2019-02-11T05:42:07.103Z,10.20
2019-02-11T05:44:37.897Z,11.27
2019-02-11T05:47:37.152Z,11.13
2019-02-11T05:50:09.832Z,7.13
2019-02-11T05:52:40.016Z,16.30
2019-02-11T05:55:11.972Z,9.37
2019-02-11T05:57:44.201Z,17.00
2019-02-11T06:00:14.284Z,10.60
2019-02-11T06:02:46.221Z,9.47
2019-02-11T06:05:21.363Z,8.57
2019-02-11T06:08:10.211Z,6.57
2019-02-11T06:10:35.643Z,6.87
2019-02-11T06:13:05.517Z,9.03
2019-02-11T06:15:33.625Z,9.27
2019-02-11T06:18:28.753Z,11.83
2019-02-11T06:20:56.651Z,6.77
2019-02-11T06:23:24.540Z,7.77
2019-02-11T06:25:52.399Z,5.07
2019-02-11T06:28:21.527Z,12.77
2019-02-11T06:30:49.289Z,10.70
2019-02-11T06:33:17.085Z,9.27
2019-02-11T06:35:44.709Z,4.67
2019-02-11T06:38:17.521Z,5.20
2019-02-11T06:40:45.134Z,7.30
2019-02-11T06:43:12.899Z,8.57
2019-02-11T06:45:40.480Z,6.77
2019-02-11T06:48:21.767Z,14.77
2019-02-11T06:50:49.374Z,6.30
2019-02-11T06:53:18.828Z,12.13
2019-02-11T06:55:46.530Z,8.07
2019-02-11T06:58:43.629Z,10.03
2019-02-11T07:01:11.431Z,10.17
2019-02-11T07:03:39.074Z,10.13
2019-02-11T07:06:06.816Z,11.80
2019-02-11T07:08:49.314Z,9.77
2019-02-11T07:11:18.822Z,11.60
2019-02-11T07:13:46.580Z,10.17
2019-02-11T07:16:14.350Z,9.63
2019-02-11T07:19:28.694Z,15.23
2019-02-11T07:21:56.439Z,17.07
2019-02-11T07:24:26.964Z,9.83
2019-02-11T07:30:23.579Z,13.07
2019-02-11T07:33:09.378Z,14.53
2019-02-11T07:35:47.862Z,15.83
2019-02-11T07:42:04.866Z,12.10
2019-02-11T07:44:49.911Z,13.37
2019-02-11T07:48:16.225Z,11.47
2019-02-11T07:50:57.282Z,17.40
2019-02-11T07:53:29.781Z,14.20
2019-02-11T07:59:39.125Z,15.97
2019-02-11T08:02:13.036Z,14.17
2019-02-11T08:04:47.393Z,13.63
2019-02-11T08:08:00.101Z,12.93
2019-02-11T08:10:32.675Z,14.43
2019-02-11T08:13:05.309Z,12.00
2019-02-11T08:15:39.210Z,9.43
2019-02-11T08:21:40.186Z,10.67
2019-02-11T08:24:15.311Z,10.53
2019-02-11T08:27:34.725Z,12.70
2019-02-11T08:30:04.396Z,10.30
2019-02-11T08:32:38.746Z,11.13
2019-02-11T08:35:09.459Z,11.23
2019-02-11T08:41:20.011Z,12.23
2019-02-11T08:43:52.530Z,12.67
2019-02-11T08:46:21.821Z,12.53
2019-02-11T08:48:54.113Z,9.60
2019-02-11T08:51:27.491Z,12.73
2019-02-11T08:53:57.468Z,13.57
2019-02-11T08:56:31.075Z,11.03
2019-02-11T08:59:05.436Z,12.03
2019-02-11T09:01:41.615Z,11.87
2019-02-11T09:04:19.335Z,13.47
2019-02-11T09:06:56.073Z,9.23
2019-02-11T09:09:33.579Z,10.40
2019-02-11T09:12:10.463Z,13.87
2019-02-11T09:14:43.265Z,14.83
2019-02-11T09:20:59.407Z,11.10
2019-02-11T09:23:33.656Z,10.73
2019-02-11T09:26:07.233Z,12.63
2019-02-11T09:28:38.471Z,13.97
2019-02-11T09:31:16.851Z,8.77
2019-02-11T09:33:52.832Z,14.57
2019-02-11T09:36:44.008Z,14.20
2019-02-11T09:39:20.603Z,11.50
2019-02-11T09:41:55.936Z,13.00
2019-02-11T09:44:38.715Z,16.17
2019-02-11T09:50:52.097Z,6.63
2019-02-11T09:53:32.061Z,10.30
2019-02-11T09:56:05.631Z,11.37
2019-02-11T10:01:49.523Z,15.33
2019-02-11T10:04:29.343Z,10.83
2019-02-11T10:10:30.375Z,11.33
2019-02-11T10:13:07.739Z,10.53
2019-02-11T10:15:35.400Z,11.87
2019-02-11T10:18:22.963Z,11.17
2019-02-11T10:20:50.667Z,9.23
2019-02-11T10:23:18.258Z,13.67
2019-02-11T10:25:45.876Z,12.83
2019-02-11T10:28:22.163Z,12.50
2019-02-11T10:30:53.637Z,10.97
2019-02-11T10:33:21.239Z,11.30
2019-02-11T10:35:48.820Z,10.50
2019-02-11T10:38:36.548Z,11.27
2019-02-11T10:41:01.240Z,10.27
2019-02-11T10:43:29.204Z,9.10
2019-02-11T10:45:56.842Z,8.93
2019-02-11T10:48:28.647Z,9.00
2019-02-11T10:50:56.251Z,10.30
2019-02-11T10:53:23.884Z,10.50
2019-02-11T10:55:51.510Z,11.10
2019-02-11T10:58:19.171Z,8.37
2019-02-11T11:00:46.906Z,12.73
2019-02-11T11:03:14.513Z,10.37
2019-02-11T11:05:42.124Z,9.23
2019-02-11T11:08:31.102Z,11.03
2019-02-11T11:10:58.718Z,11.50
2019-02-11T11:13:26.317Z,9.70
2019-02-11T11:15:53.910Z,8.00
2019-02-11T11:18:39.879Z,9.13
2019-02-11T11:21:09.128Z,9.90
2019-02-11T11:23:36.725Z,9.70
2019-02-11T11:26:04.318Z,11.30
2019-02-11T11:28:53.472Z,8.77
2019-02-11T11:31:21.028Z,11.07
2019-02-11T11:33:48.632Z,11.57
2019-02-11T11:36:16.320Z,9.00
2019-02-11T11:38:47.372Z,11.87
2019-02-11T11:41:15.041Z,8.23
2019-02-11T11:43:42.663Z,8.70
2019-02-11T11:46:10.254Z,11.27
2019-02-11T11:48:52.962Z,11.27
2019-02-11T11:51:20.688Z,5.90
2019-02-11T11:53:48.266Z,10.60
2019-02-11T11:56:15.930Z,10.77
2019-02-11T11:58:57.996Z,13.77
2019-02-11T12:01:26.391Z,7.37
2019-02-11T12:03:54.157Z,7.73
2019-02-11T12:06:25.073Z,9.77
2019-02-11T12:08:51.202Z,11.40
2019-02-11T12:11:18.785Z,9.00
2019-02-11T12:13:46.449Z,8.83
2019-02-11T12:16:14.017Z,9.37
2019-02-11T12:18:44.663Z,6.97
2019-02-11T12:21:14.552Z,5.97
2019-02-11T12:23:42.141Z,11.67
2019-02-11T12:26:09.828Z,8.03
2019-02-11T12:28:43.519Z,11.70
2019-02-11T12:31:11.205Z,9.03
2019-02-11T12:33:38.825Z,12.30
2019-02-11T12:36:06.530Z,8.67
2019-02-11T12:38:58.686Z,6.90
2019-02-11T12:41:43.116Z,7.60
2019-02-11T12:44:14.162Z,7.83
2019-02-11T12:47:12.758Z,11.10
2019-02-11T12:49:24.985Z,6.97
2019-02-11T12:51:52.924Z,5.53
2019-02-11T12:54:20.759Z,5.87
2019-02-11T12:56:51.671Z,7.50
2019-02-11T12:59:30.095Z,7.53
2019-02-11T13:01:57.807Z,8.37
2019-02-11T13:04:25.402Z,8.30
2019-02-11T13:07:17.589Z,7.00
2019-02-11T13:09:45.508Z,8.30
2019-02-11T13:12:13.829Z,8.40
2019-02-11T13:14:41.409Z,6.10
2019-02-11T13:20:39.041Z,7.53
2019-02-11T13:23:06.710Z,6.17
2019-02-11T13:25:34.389Z,5.50
2019-02-11T13:29:01.843Z,4.23
2019-02-11T13:31:29.627Z,7.27
2019-02-11T13:33:57.281Z,5.60
2019-02-11T13:36:24.972Z,8.63
2019-02-11T13:38:52.762Z,8.27
2019-02-11T13:41:22.502Z,6.80
2019-02-11T13:43:56.760Z,7.70
2019-02-11T13:46:26.270Z,5.03
2019-02-11T13:49:00.781Z,5.57
2019-02-11T13:51:30.020Z,6.60
2019-02-11T13:54:00.601Z,8.23
2019-02-11T13:56:38.463Z,8.80
2019-02-11T13:59:10.996Z,5.57
2019-02-11T14:01:52.000Z,5.83
2019-02-11T14:04:28.279Z,11.17
2019-02-11T14:07:19.593Z,6.50
2019-02-11T14:09:50.968Z,8.97
2019-02-11T14:12:24.208Z,7.37
2019-02-11T14:14:56.671Z,8.10
2019-02-11T14:17:35.595Z,6.07
2019-02-11T14:20:12.168Z,5.13
2019-02-11T14:22:52.583Z,5.53
2019-02-11T14:25:42.918Z,7.63
2019-02-11T14:28:42.439Z,5.33
2019-02-11T14:31:14.081Z,6.50
2019-02-11T14:33:55.607Z,7.07
2019-02-11T14:36:23.992Z,7.67
2019-02-11T14:38:54.304Z,6.57
2019-02-11T14:41:30.605Z,4.53
2019-02-11T14:44:05.782Z,5.43
2019-02-11T14:46:56.957Z,7.77
2019-02-11T14:49:37.670Z,8.53
2019-02-11T14:52:08.618Z,9.37
2019-02-11T14:54:47.822Z,8.10
2019-02-11T14:57:26.019Z,6.77
2019-02-11T14:59:59.332Z,6.27
2019-02-11T15:02:35.140Z,4.57
2019-02-11T15:05:09.727Z,6.57
2019-02-11T15:08:13.950Z,4.70
2019-02-11T15:10:55.254Z,6.13
2019-02-11T15:13:45.616Z,6.67
2019-02-11T15:16:28.145Z,8.03
2019-02-11T15:19:04.768Z,9.80
2019-02-11T15:21:39.824Z,5.13
2019-02-11T15:24:23.053Z,5.77
2019-02-11T15:27:33.718Z,6.67
2019-02-11T15:30:33.949Z,9.07
2019-02-11T15:39:51.493Z,8.87
2019-02-11T15:43:01.879Z,9.63
2019-02-11T15:45:49.479Z,8.80
2019-02-11T15:48:49.161Z,7.07
2019-02-11T15:51:36.993Z,7.10
2019-02-11T15:54:16.301Z,12.77
2019-02-11T16:00:23.286Z,12.37
2019-02-11T16:02:59.311Z,8.57
2019-02-11T16:05:55.733Z,10.53
2019-02-11T16:12:40.124Z,9.37
2019-02-11T16:15:42.785Z,9.93
2019-02-11T16:22:42.528Z,12.37
2019-02-11T16:25:24.179Z,11.13
2019-02-11T16:31:27.214Z,12.47
2019-02-11T16:34:19.005Z,8.30
2019-02-11T16:37:10.392Z,10.10
2019-02-11T16:40:11.351Z,11.20
2019-02-11T16:46:17.402Z,9.03
2019-02-11T16:49:02.481Z,9.87
2019-02-11T16:51:47.426Z,11.10
2019-02-11T16:54:52.555Z,8.90
2019-02-11T17:08:46.313Z,8.50
2019-02-11T17:18:43.603Z,8.47
2019-02-11T17:21:52.597Z,12.97
2019-02-11T17:25:12.941Z,12.83
2019-02-11T17:28:45.644Z,10.03
2019-02-11T17:31:39.066Z,10.00
2019-02-11T17:34:34.872Z,10.00
2019-02-11T17:37:46.356Z,7.33
2019-02-11T17:44:09.337Z,10.57
2019-02-11T17:47:31.897Z,13.40
2019-02-11T17:50:17.126Z,15.90
2019-02-11T17:53:09.511Z,13.97
2019-02-11T17:56:11.366Z,13.57
2019-02-11T17:59:02.932Z,18.20
2019-02-11T18:02:07.228Z,13.80
2019-02-11T18:11:49.694Z,11.87
2019-02-11T18:14:41.526Z,21.77
2019-02-11T18:17:50.143Z,38.00
2019-02-11T18:23:59.224Z,24.07
2019-02-11T18:26:43.230Z,22.87
2019-02-11T18:29:16.235Z,17.60
2019-02-11T18:31:44.052Z,17.30
2019-02-11T18:34:14.456Z,19.57
2019-02-11T18:36:59.637Z,20.10
2019-02-11T18:39:27.333Z,18.23
2019-02-11T18:41:54.924Z,15.20
2019-02-11T18:44:22.593Z,22.90
2019-02-11T18:47:01.433Z,18.17
2019-02-11T18:49:34.370Z,16.90
2019-02-11T18:51:58.468Z,12.20
2019-02-11T18:54:26.054Z,17.73
2019-02-11T18:56:56.643Z,18.33
2019-02-11T18:59:28.923Z,13.50
2019-02-11T19:01:56.659Z,14.40
2019-02-11T19:04:24.331Z,13.57
2019-02-11T19:06:52.906Z,13.73
2019-02-11T19:09:21.047Z,12.83
2019-02-11T19:11:48.875Z,18.13
2019-02-11T19:14:16.842Z,14.80
2019-02-11T19:16:44.787Z,11.70
2019-02-11T19:19:12.650Z,14.83
2019-02-11T19:21:40.697Z,14.37
2019-02-11T19:24:19.119Z,20.13
2019-02-11T19:27:10.332Z,13.50
2019-02-11T19:29:38.024Z,16.37
2019-02-11T19:32:05.801Z,14.17
2019-02-11T19:34:33.807Z,17.80
2019-02-11T19:37:21.120Z,18.53
2019-02-11T19:40:00.415Z,17.10
2019-02-11T19:42:33.817Z,21.90
2019-02-11T19:45:03.165Z,16.97
2019-02-11T19:47:38.163Z,13.37
2019-02-11T19:50:07.390Z,24.53
2019-02-11T19:52:44.931Z,13.57
2019-02-11T19:55:13.015Z,18.53
2019-02-11T19:58:32.412Z,18.87
2019-02-11T20:01:09.747Z,17.10
2019-02-11T20:03:43.394Z,20.37
2019-02-11T20:06:16.132Z,19.00
2019-02-11T20:09:32.919Z,18.70
2019-02-11T20:12:27.717Z,17.13
2019-02-11T20:15:07.232Z,14.33
2019-02-11T20:17:57.688Z,25.63
2019-02-11T20:20:33.049Z,21.07
2019-02-11T20:23:07.824Z,20.13
2019-02-11T20:25:37.937Z,15.57
2019-02-11T20:28:44.577Z,16.30
2019-02-11T20:31:19.255Z,21.80
2019-02-11T20:33:56.271Z,15.37
2019-02-11T20:36:30.908Z,13.83
2019-02-11T20:39:07.927Z,18.63
2019-02-11T20:41:46.287Z,15.50
2019-02-11T20:44:27.967Z,15.17
2019-02-11T20:47:22.806Z,16.07
2019-02-11T20:49:54.445Z,19.40
2019-02-11T20:52:29.300Z,20.57
2019-02-11T20:54:59.322Z,18.30
2019-02-11T20:58:14.280Z,14.30
2019-02-11T21:01:10.024Z,15.27
2019-02-11T21:03:43.915Z,18.70
2019-02-11T21:09:27.563Z,27.57
2019-02-11T21:11:55.538Z,18.57
2019-02-11T21:14:34.224Z,19.07
2019-02-11T21:18:26.201Z,23.40
2019-02-11T21:21:00.218Z,15.63
2019-02-11T21:23:32.427Z,18.67
2019-02-11T21:26:08.784Z,17.23
2019-02-11T21:29:14.124Z,22.60
2019-02-11T21:31:45.078Z,18.67
2019-02-11T21:34:17.464Z,25.67
2019-02-11T21:37:06.025Z,27.93
2019-02-11T21:39:35.660Z,22.03
2019-02-11T21:42:03.609Z,17.40
2019-02-11T21:44:32.846Z,22.67
2019-02-11T21:47:04.724Z,20.23
2019-02-11T21:49:52.964Z,22.67
2019-02-11T21:52:08.687Z,18.20
2019-02-11T21:54:36.577Z,21.87
2019-02-11T21:57:14.126Z,21.33
2019-02-11T21:59:43.252Z,19.43
2019-02-11T22:02:11.011Z,18.63
2019-02-11T22:04:38.672Z,23.77
2019-02-11T22:07:13.956Z,22.67
2019-02-11T22:09:43.353Z,29.63
2019-02-11T22:12:11.119Z,29.10
2019-02-11T22:14:38.780Z,24.30
2019-02-11T22:17:09.388Z,28.87
2019-02-11T22:19:37.362Z,22.30
2019-02-11T22:22:05.136Z,24.67
2019-02-11T22:24:32.819Z,23.33
2019-02-11T22:27:03.420Z,25.83
2019-02-11T22:29:31.064Z,25.77
2019-02-11T22:31:58.712Z,28.43
2019-02-11T22:34:26.334Z,30.93
2019-02-11T22:36:57.010Z,23.70
2019-02-11T22:39:24.733Z,21.07
2019-02-11T22:41:52.375Z,24.43
2019-02-11T22:44:20.062Z,26.70
2019-02-11T22:46:47.701Z,25.10
2019-02-11T22:49:15.334Z,23.17
2019-02-11T22:51:43.131Z,23.90
2019-02-11T22:54:10.703Z,24.73
2019-02-11T22:56:41.484Z,25.67
2019-02-11T22:59:09.083Z,23.20
2019-02-11T23:01:36.698Z,20.20
2019-02-11T23:04:04.330Z,31.83
2019-02-11T23:06:32.141Z,21.43
2019-02-11T23:08:59.850Z,23.63
2019-02-11T23:11:29.941Z,27.50
2019-02-11T23:13:59.480Z,25.43
2019-02-11T23:16:27.164Z,29.17
2019-02-11T23:18:55.424Z,25.00
2019-02-11T23:21:23.748Z,21.50
2019-02-11T23:24:02.936Z,24.50
2019-02-11T23:26:35.351Z,26.33
2019-02-11T23:29:16.460Z,28.83
2019-02-11T23:31:57.692Z,24.80
2019-02-11T23:34:35.087Z,21.93
2019-02-11T23:40:41.944Z,21.63
2019-02-11T23:43:13.524Z,22.27
2019-02-11T23:45:52.278Z,19.83
2019-02-11T23:48:38.306Z,19.57
2019-02-11T23:51:17.354Z,18.73
2019-02-11T23:53:53.870Z,23.90
2019-02-11T23:56:31.826Z,20.00
2019-02-11T23:59:10.170Z,20.73
